sensor_id;sensor_type;location;lat;lon;timestamp;temperature;humidity
45491;DHT22;31237;45.586;13.782;2023-08-21T00:02:01;24.20;82.80
45491;DHT22;31237;45.586;13.782;2023-08-21T00:04:26;24.10;82.90
45491;DHT22;31237;45.586;13.782;2023-08-21T00:06:52;24.10;83.00
45491;DHT22;31237;45.586;13.782;2023-08-21T00:09:18;24.10;83.20
45491;DHT22;31237;45.586;13.782;2023-08-21T00:11:43;24.10;83.30
45491;DHT22;31237;45.586;13.782;2023-08-21T00:14:09;24.10;83.40
45491;DHT22;31237;45.586;13.782;2023-08-21T00:16:35;24.00;83.40
45491;DHT22;31237;45.586;13.782;2023-08-21T00:19:01;24.00;83.60
45491;DHT22;31237;45.586;13.782;2023-08-21T00:21:26;24.00;83.60
45491;DHT22;31237;45.586;13.782;2023-08-21T00:23:52;24.00;83.70
45491;DHT22;31237;45.586;13.782;2023-08-21T00:26:18;24.00;83.80
45491;DHT22;31237;45.586;13.782;2023-08-21T00:28:43;24.00;83.90
45491;DHT22;31237;45.586;13.782;2023-08-21T00:31:09;24.00;84.00
45491;DHT22;31237;45.586;13.782;2023-08-21T00:33:35;24.00;84.10
45491;DHT22;31237;45.586;13.782;2023-08-21T00:36:02;24.00;84.10
45491;DHT22;31237;45.586;13.782;2023-08-21T00:38:28;24.00;84.00
45491;DHT22;31237;45.586;13.782;2023-08-21T00:40:54;24.10;84.10
45491;DHT22;31237;45.586;13.782;2023-08-21T00:43:20;24.00;84.00
45491;DHT22;31237;45.586;13.782;2023-08-21T00:45:46;24.00;84.10
45491;DHT22;31237;45.586;13.782;2023-08-21T00:48:14;24.00;84.20
45491;DHT22;31237;45.586;13.782;2023-08-21T00:50:40;24.00;84.20
45491;DHT22;31237;45.586;13.782;2023-08-21T00:53:06;24.00;84.30
45491;DHT22;31237;45.586;13.782;2023-08-21T00:55:32;24.00;84.50
45491;DHT22;31237;45.586;13.782;2023-08-21T00:57:59;23.90;84.60
45491;DHT22;31237;45.586;13.782;2023-08-21T01:00:25;23.90;84.70
45491;DHT22;31237;45.586;13.782;2023-08-21T01:02:52;23.90;84.90
45491;DHT22;31237;45.586;13.782;2023-08-21T01:05:18;23.90;85.00
45491;DHT22;31237;45.586;13.782;2023-08-21T01:07:56;23.90;85.10
45491;DHT22;31237;45.586;13.782;2023-08-21T01:10:42;23.80;85.20
45491;DHT22;31237;45.586;13.782;2023-08-21T01:15:59;23.80;85.50
45491;DHT22;31237;45.586;13.782;2023-08-21T01:18:26;23.70;85.60
45491;DHT22;31237;45.586;13.782;2023-08-21T01:20:54;23.70;85.70
45491;DHT22;31237;45.586;13.782;2023-08-21T01:23:36;23.70;85.90
45491;DHT22;31237;45.586;13.782;2023-08-21T01:26:03;23.70;86.00
45491;DHT22;31237;45.586;13.782;2023-08-21T01:28:30;23.60;86.10
45491;DHT22;31237;45.586;13.782;2023-08-21T01:33:33;23.70;86.50
45491;DHT22;31237;45.586;13.782;2023-08-21T01:36:02;23.60;86.50
45491;DHT22;31237;45.586;13.782;2023-08-21T01:38:32;23.60;86.50
45491;DHT22;31237;45.586;13.782;2023-08-21T01:40:57;23.60;86.60
45491;DHT22;31237;45.586;13.782;2023-08-21T01:43:24;23.60;86.70
45491;DHT22;31237;45.586;13.782;2023-08-21T01:45:49;23.60;86.80
45491;DHT22;31237;45.586;13.782;2023-08-21T01:48:15;23.70;86.90
45491;DHT22;31237;45.586;13.782;2023-08-21T01:50:41;23.70;86.80
45491;DHT22;31237;45.586;13.782;2023-08-21T01:53:06;23.70;86.60
45491;DHT22;31237;45.586;13.782;2023-08-21T01:55:32;23.80;86.50
45491;DHT22;31237;45.586;13.782;2023-08-21T01:57:58;23.80;86.40
45491;DHT22;31237;45.586;13.782;2023-08-21T02:00:23;23.80;86.20
45491;DHT22;31237;45.586;13.782;2023-08-21T02:02:49;23.90;86.10
45491;DHT22;31237;45.586;13.782;2023-08-21T02:05:15;23.90;85.90
45491;DHT22;31237;45.586;13.782;2023-08-21T02:07:40;23.90;85.80
45491;DHT22;31237;45.586;13.782;2023-08-21T02:10:07;23.80;85.80
45491;DHT22;31237;45.586;13.782;2023-08-21T02:12:33;23.80;85.80
45491;DHT22;31237;45.586;13.782;2023-08-21T02:14:58;23.80;85.80
45491;DHT22;31237;45.586;13.782;2023-08-21T02:17:26;23.80;85.80
45491;DHT22;31237;45.586;13.782;2023-08-21T02:19:52;23.80;85.80
45491;DHT22;31237;45.586;13.782;2023-08-21T02:22:18;23.80;85.80
45491;DHT22;31237;45.586;13.782;2023-08-21T02:24:43;23.80;85.70
45491;DHT22;31237;45.586;13.782;2023-08-21T02:27:09;23.80;85.60
45491;DHT22;31237;45.586;13.782;2023-08-21T02:29:35;23.80;85.50
45491;DHT22;31237;45.586;13.782;2023-08-21T02:32:00;23.90;85.50
45491;DHT22;31237;45.586;13.782;2023-08-21T02:34:26;23.80;85.50
45491;DHT22;31237;45.586;13.782;2023-08-21T02:36:52;23.80;85.50
45491;DHT22;31237;45.586;13.782;2023-08-21T02:39:18;23.80;85.50
45491;DHT22;31237;45.586;13.782;2023-08-21T02:41:43;23.90;85.50
45491;DHT22;31237;45.586;13.782;2023-08-21T02:44:09;23.90;85.50
45491;DHT22;31237;45.586;13.782;2023-08-21T02:46:35;23.90;85.50
45491;DHT22;31237;45.586;13.782;2023-08-21T02:49:02;23.90;85.40
45491;DHT22;31237;45.586;13.782;2023-08-21T02:51:27;23.90;85.40
45491;DHT22;31237;45.586;13.782;2023-08-21T02:53:53;23.90;85.40
45491;DHT22;31237;45.586;13.782;2023-08-21T02:56:19;23.80;85.30
45491;DHT22;31237;45.586;13.782;2023-08-21T02:58:45;23.90;85.40
45491;DHT22;31237;45.586;13.782;2023-08-21T03:01:10;23.80;85.30
45491;DHT22;31237;45.586;13.782;2023-08-21T03:03:37;23.80;85.30
45491;DHT22;31237;45.586;13.782;2023-08-21T03:06:03;23.80;85.30
45491;DHT22;31237;45.586;13.782;2023-08-21T03:08:28;23.80;85.30
45491;DHT22;31237;45.586;13.782;2023-08-21T03:10:54;23.80;85.30
45491;DHT22;31237;45.586;13.782;2023-08-21T03:13:20;23.80;85.30
45491;DHT22;31237;45.586;13.782;2023-08-21T03:15:45;23.80;85.30
45491;DHT22;31237;45.586;13.782;2023-08-21T03:18:11;23.80;85.40
45491;DHT22;31237;45.586;13.782;2023-08-21T03:20:37;23.70;85.30
45491;DHT22;31237;45.586;13.782;2023-08-21T03:23:03;23.70;85.30
45491;DHT22;31237;45.586;13.782;2023-08-21T03:25:28;23.70;85.30
45491;DHT22;31237;45.586;13.782;2023-08-21T03:27:54;23.70;85.40
45491;DHT22;31237;45.586;13.782;2023-08-21T03:30:20;23.70;85.40
45491;DHT22;31237;45.586;13.782;2023-08-21T03:32:46;23.70;85.50
45491;DHT22;31237;45.586;13.782;2023-08-21T03:35:12;23.60;85.50
45491;DHT22;31237;45.586;13.782;2023-08-21T03:37:38;23.60;85.50
45491;DHT22;31237;45.586;13.782;2023-08-21T03:40:04;23.60;85.50
45491;DHT22;31237;45.586;13.782;2023-08-21T03:42:30;23.60;85.60
45491;DHT22;31237;45.586;13.782;2023-08-21T03:44:55;23.60;85.60
45491;DHT22;31237;45.586;13.782;2023-08-21T03:47:21;23.60;85.70
45491;DHT22;31237;45.586;13.782;2023-08-21T03:49:47;23.60;85.80
45491;DHT22;31237;45.586;13.782;2023-08-21T03:52:14;23.60;85.90
45491;DHT22;31237;45.586;13.782;2023-08-21T03:54:39;23.50;85.90
45491;DHT22;31237;45.586;13.782;2023-08-21T03:57:05;23.50;86.00
45491;DHT22;31237;45.586;13.782;2023-08-21T03:59:31;23.50;86.00
45491;DHT22;31237;45.586;13.782;2023-08-21T04:01:57;23.40;86.00
45491;DHT22;31237;45.586;13.782;2023-08-21T04:04:22;23.40;86.10
45491;DHT22;31237;45.586;13.782;2023-08-21T04:06:48;23.40;86.20
45491;DHT22;31237;45.586;13.782;2023-08-21T04:09:14;23.40;86.20
45491;DHT22;31237;45.586;13.782;2023-08-21T04:11:40;23.40;86.20
45491;DHT22;31237;45.586;13.782;2023-08-21T04:14:06;23.40;86.20
45491;DHT22;31237;45.586;13.782;2023-08-21T04:16:32;23.40;86.30
45491;DHT22;31237;45.586;13.782;2023-08-21T04:18:57;23.40;86.30
45491;DHT22;31237;45.586;13.782;2023-08-21T04:21:23;23.40;86.30
45491;DHT22;31237;45.586;13.782;2023-08-21T04:23:49;23.40;86.40
45491;DHT22;31237;45.586;13.782;2023-08-21T04:26:15;23.40;86.40
45491;DHT22;31237;45.586;13.782;2023-08-21T04:28:40;23.40;86.30
45491;DHT22;31237;45.586;13.782;2023-08-21T04:31:07;23.40;86.20
45491;DHT22;31237;45.586;13.782;2023-08-21T04:33:33;23.40;86.10
45491;DHT22;31237;45.586;13.782;2023-08-21T04:36:00;23.40;86.20
45491;DHT22;31237;45.586;13.782;2023-08-21T04:38:26;23.40;86.20
45491;DHT22;31237;45.586;13.782;2023-08-21T04:40:52;23.50;86.10
45491;DHT22;31237;45.586;13.782;2023-08-21T04:43:17;23.50;86.00
45491;DHT22;31237;45.586;13.782;2023-08-21T04:45:49;23.50;85.80
45491;DHT22;31237;45.586;13.782;2023-08-21T04:48:16;23.60;85.80
45491;DHT22;31237;45.586;13.782;2023-08-21T04:50:42;23.60;85.80
45491;DHT22;31237;45.586;13.782;2023-08-21T04:53:08;23.70;85.60
45491;DHT22;31237;45.586;13.782;2023-08-21T04:55:33;23.70;85.50
45491;DHT22;31237;45.586;13.782;2023-08-21T04:57:59;23.80;85.40
45491;DHT22;31237;45.586;13.782;2023-08-21T05:00:25;23.90;85.30
45491;DHT22;31237;45.586;13.782;2023-08-21T05:02:51;23.90;85.20
45491;DHT22;31237;45.586;13.782;2023-08-21T05:05:16;23.90;85.10
45491;DHT22;31237;45.586;13.782;2023-08-21T05:07:42;23.90;85.00
45491;DHT22;31237;45.586;13.782;2023-08-21T05:10:08;24.00;85.00
45491;DHT22;31237;45.586;13.782;2023-08-21T05:12:34;24.00;84.90
45491;DHT22;31237;45.586;13.782;2023-08-21T05:15:00;24.10;84.80
45491;DHT22;31237;45.586;13.782;2023-08-21T05:17:26;24.20;84.60
45491;DHT22;31237;45.586;13.782;2023-08-21T05:19:52;24.20;84.40
45491;DHT22;31237;45.586;13.782;2023-08-21T05:22:18;24.20;84.30
45491;DHT22;31237;45.586;13.782;2023-08-21T05:24:43;24.30;84.30
45491;DHT22;31237;45.586;13.782;2023-08-21T05:27:09;24.30;84.30
45491;DHT22;31237;45.586;13.782;2023-08-21T05:29:35;24.30;84.30
45491;DHT22;31237;45.586;13.782;2023-08-21T05:32:01;24.40;84.30
45491;DHT22;31237;45.586;13.782;2023-08-21T05:34:26;24.30;84.30
45491;DHT22;31237;45.586;13.782;2023-08-21T05:36:53;24.40;84.40
45491;DHT22;31237;45.586;13.782;2023-08-21T05:39:22;24.40;85.20
45491;DHT22;31237;45.586;13.782;2023-08-21T05:41:47;24.40;84.80
45491;DHT22;31237;45.586;13.782;2023-08-21T05:44:13;24.40;84.80
45491;DHT22;31237;45.586;13.782;2023-08-21T05:46:39;24.40;85.00
45491;DHT22;31237;45.586;13.782;2023-08-21T05:49:04;24.40;85.10
45491;DHT22;31237;45.586;13.782;2023-08-21T05:51:31;24.40;85.20
45491;DHT22;31237;45.586;13.782;2023-08-21T05:53:56;24.50;85.30
45491;DHT22;31237;45.586;13.782;2023-08-21T05:56:22;24.50;85.40
45491;DHT22;31237;45.586;13.782;2023-08-21T05:58:49;24.50;85.50
45491;DHT22;31237;45.586;13.782;2023-08-21T06:01:14;24.50;86.00
45491;DHT22;31237;45.586;13.782;2023-08-21T06:03:40;24.60;86.10
45491;DHT22;31237;45.586;13.782;2023-08-21T06:06:06;24.60;85.90
45491;DHT22;31237;45.586;13.782;2023-08-21T06:08:32;24.70;85.90
45491;DHT22;31237;45.586;13.782;2023-08-21T06:10:57;24.80;86.00
45491;DHT22;31237;45.586;13.782;2023-08-21T06:13:24;24.80;86.00
45491;DHT22;31237;45.586;13.782;2023-08-21T06:15:50;24.90;86.10
45491;DHT22;31237;45.586;13.782;2023-08-21T06:18:16;24.90;86.00
45491;DHT22;31237;45.586;13.782;2023-08-21T06:20:43;25.00;86.00
45491;DHT22;31237;45.586;13.782;2023-08-21T06:23:12;25.10;85.90
45491;DHT22;31237;45.586;13.782;2023-08-21T06:25:38;25.10;85.60
45491;DHT22;31237;45.586;13.782;2023-08-21T06:28:04;25.20;85.40
45491;DHT22;31237;45.586;13.782;2023-08-21T06:30:30;25.30;85.10
45491;DHT22;31237;45.586;13.782;2023-08-21T06:32:56;25.40;85.00
45491;DHT22;31237;45.586;13.782;2023-08-21T06:35:22;25.40;84.90
45491;DHT22;31237;45.586;13.782;2023-08-21T06:37:48;25.50;84.80
45491;DHT22;31237;45.586;13.782;2023-08-21T06:40:13;25.60;84.60
45491;DHT22;31237;45.586;13.782;2023-08-21T06:42:39;25.70;84.50
45491;DHT22;31237;45.586;13.782;2023-08-21T06:45:05;25.80;84.20
45491;DHT22;31237;45.586;13.782;2023-08-21T06:47:32;25.90;83.80
45491;DHT22;31237;45.586;13.782;2023-08-21T06:49:57;26.00;83.60
45491;DHT22;31237;45.586;13.782;2023-08-21T06:52:25;26.10;83.50
45491;DHT22;31237;45.586;13.782;2023-08-21T06:54:51;26.10;83.20
45491;DHT22;31237;45.586;13.782;2023-08-21T06:57:17;26.20;83.00
45491;DHT22;31237;45.586;13.782;2023-08-21T06:59:43;26.30;83.00
45491;DHT22;31237;45.586;13.782;2023-08-21T07:02:08;26.40;82.70
45491;DHT22;31237;45.586;13.782;2023-08-21T07:04:34;26.50;82.60
45491;DHT22;31237;45.586;13.782;2023-08-21T07:07:00;26.50;82.40
45491;DHT22;31237;45.586;13.782;2023-08-21T07:09:25;26.60;82.20
45491;DHT22;31237;45.586;13.782;2023-08-21T07:11:51;26.80;82.20
45491;DHT22;31237;45.586;13.782;2023-08-21T07:14:17;26.90;82.00
45491;DHT22;31237;45.586;13.782;2023-08-21T07:16:43;26.90;81.50
45491;DHT22;31237;45.586;13.782;2023-08-21T07:19:09;27.10;81.30
45491;DHT22;31237;45.586;13.782;2023-08-21T07:21:35;27.20;80.70
45491;DHT22;31237;45.586;13.782;2023-08-21T07:24:03;27.30;80.10
45491;DHT22;31237;45.586;13.782;2023-08-21T07:26:29;27.40;78.90
45491;DHT22;31237;45.586;13.782;2023-08-21T07:28:55;27.50;78.30
45491;DHT22;31237;45.586;13.782;2023-08-21T07:31:21;27.60;78.10
45491;DHT22;31237;45.586;13.782;2023-08-21T07:33:47;27.70;77.50
45491;DHT22;31237;45.586;13.782;2023-08-21T07:36:13;27.80;76.90
45491;DHT22;31237;45.586;13.782;2023-08-21T07:38:45;27.90;76.30
45491;DHT22;31237;45.586;13.782;2023-08-21T07:41:12;28.00;75.90
45491;DHT22;31237;45.586;13.782;2023-08-21T07:43:40;28.10;75.10
45491;DHT22;31237;45.586;13.782;2023-08-21T07:46:08;28.30;74.60
45491;DHT22;31237;45.586;13.782;2023-08-21T07:48:35;28.40;74.40
45491;DHT22;31237;45.586;13.782;2023-08-21T07:51:01;28.50;74.20
45491;DHT22;31237;45.586;13.782;2023-08-21T07:53:32;28.70;73.90
45491;DHT22;31237;45.586;13.782;2023-08-21T07:56:00;28.80;73.30
45491;DHT22;31237;45.586;13.782;2023-08-21T07:58:26;28.90;72.90
45491;DHT22;31237;45.586;13.782;2023-08-21T08:00:52;29.00;72.50
45491;DHT22;31237;45.586;13.782;2023-08-21T08:03:18;29.10;71.80
45491;DHT22;31237;45.586;13.782;2023-08-21T08:05:44;29.20;71.90
45491;DHT22;31237;45.586;13.782;2023-08-21T08:08:10;29.30;71.70
45491;DHT22;31237;45.586;13.782;2023-08-21T08:10:39;29.50;71.60
45491;DHT22;31237;45.586;13.782;2023-08-21T08:13:06;29.50;71.50
45491;DHT22;31237;45.586;13.782;2023-08-21T08:15:31;29.70;71.30
45491;DHT22;31237;45.586;13.782;2023-08-21T08:17:59;29.80;71.10
45491;DHT22;31237;45.586;13.782;2023-08-21T08:20:25;29.90;70.90
45491;DHT22;31237;45.586;13.782;2023-08-21T08:22:51;30.00;70.90
45491;DHT22;31237;45.586;13.782;2023-08-21T08:25:16;30.10;70.70
45491;DHT22;31237;45.586;13.782;2023-08-21T08:27:43;30.20;70.40
45491;DHT22;31237;45.586;13.782;2023-08-21T08:30:09;30.30;70.50
45491;DHT22;31237;45.586;13.782;2023-08-21T08:32:35;30.40;70.50
45491;DHT22;31237;45.586;13.782;2023-08-21T08:35:01;30.40;70.20
45491;DHT22;31237;45.586;13.782;2023-08-21T08:37:27;30.60;69.20
45491;DHT22;31237;45.586;13.782;2023-08-21T08:39:52;30.70;68.30
45491;DHT22;31237;45.586;13.782;2023-08-21T08:42:18;30.70;67.60
45491;DHT22;31237;45.586;13.782;2023-08-21T08:44:44;30.80;66.70
45491;DHT22;31237;45.586;13.782;2023-08-21T08:47:13;30.80;66.30
45491;DHT22;31237;45.586;13.782;2023-08-21T08:49:41;30.90;66.20
45491;DHT22;31237;45.586;13.782;2023-08-21T08:52:07;31.00;66.40
45491;DHT22;31237;45.586;13.782;2023-08-21T08:54:33;31.00;65.40
45491;DHT22;31237;45.586;13.782;2023-08-21T08:57:01;31.10;65.70
45491;DHT22;31237;45.586;13.782;2023-08-21T08:59:30;31.20;65.40
45491;DHT22;31237;45.586;13.782;2023-08-21T09:01:56;31.30;65.50
45491;DHT22;31237;45.586;13.782;2023-08-21T09:04:22;31.40;65.20
45491;DHT22;31237;45.586;13.782;2023-08-21T09:06:48;31.40;64.40
45491;DHT22;31237;45.586;13.782;2023-08-21T09:09:13;31.50;64.90
45491;DHT22;31237;45.586;13.782;2023-08-21T09:11:43;31.60;65.20
45491;DHT22;31237;45.586;13.782;2023-08-21T09:14:10;31.70;65.70
45491;DHT22;31237;45.586;13.782;2023-08-21T09:16:37;31.80;65.80
45491;DHT22;31237;45.586;13.782;2023-08-21T09:19:03;31.90;65.50
45491;DHT22;31237;45.586;13.782;2023-08-21T09:21:29;32.00;65.30
45491;DHT22;31237;45.586;13.782;2023-08-21T09:24:00;32.00;65.00
45491;DHT22;31237;45.586;13.782;2023-08-21T09:26:27;32.10;64.40
45491;DHT22;31237;45.586;13.782;2023-08-21T09:28:55;32.20;64.40
45491;DHT22;31237;45.586;13.782;2023-08-21T09:31:30;32.20;64.40
45491;DHT22;31237;45.586;13.782;2023-08-21T09:33:58;32.40;64.40
45491;DHT22;31237;45.586;13.782;2023-08-21T09:36:26;32.40;64.30
45491;DHT22;31237;45.586;13.782;2023-08-21T09:38:52;32.50;64.20
45491;DHT22;31237;45.586;13.782;2023-08-21T09:41:22;32.60;63.80
45491;DHT22;31237;45.586;13.782;2023-08-21T09:43:48;32.70;63.40
45491;DHT22;31237;45.586;13.782;2023-08-21T09:46:17;32.80;63.00
45491;DHT22;31237;45.586;13.782;2023-08-21T09:48:49;32.80;62.00
45491;DHT22;31237;45.586;13.782;2023-08-21T09:51:17;32.80;62.00
45491;DHT22;31237;45.586;13.782;2023-08-21T09:53:43;32.80;62.10
45491;DHT22;31237;45.586;13.782;2023-08-21T09:56:09;32.90;61.80
45491;DHT22;31237;45.586;13.782;2023-08-21T09:58:36;32.90;62.00
45491;DHT22;31237;45.586;13.782;2023-08-21T10:01:05;33.00;62.00
45491;DHT22;31237;45.586;13.782;2023-08-21T10:03:40;33.00;62.20
45491;DHT22;31237;45.586;13.782;2023-08-21T10:06:08;33.00;62.00
45491;DHT22;31237;45.586;13.782;2023-08-21T10:08:39;33.10;61.60
45491;DHT22;31237;45.586;13.782;2023-08-21T10:11:08;33.10;60.10
45491;DHT22;31237;45.586;13.782;2023-08-21T10:13:36;33.10;60.20
45491;DHT22;31237;45.586;13.782;2023-08-21T10:16:03;33.10;60.70
45491;DHT22;31237;45.586;13.782;2023-08-21T10:18:32;33.10;61.20
45491;DHT22;31237;45.586;13.782;2023-08-21T10:23:37;33.30;60.90
45491;DHT22;31237;45.586;13.782;2023-08-21T10:26:06;33.40;61.10
45491;DHT22;31237;45.586;13.782;2023-08-21T10:31:39;33.60;60.10
45491;DHT22;31237;45.586;13.782;2023-08-21T10:34:15;33.60;59.10
45491;DHT22;31237;45.586;13.782;2023-08-21T10:42:09;33.70;58.90
45491;DHT22;31237;45.586;13.782;2023-08-21T10:44:36;33.80;58.00
45491;DHT22;31237;45.586;13.782;2023-08-21T10:47:32;33.80;57.10
45491;DHT22;31237;45.586;13.782;2023-08-21T10:50:05;33.80;56.80
45491;DHT22;31237;45.586;13.782;2023-08-21T10:52:41;33.80;56.90
45491;DHT22;31237;45.586;13.782;2023-08-21T10:55:11;33.80;57.00
45491;DHT22;31237;45.586;13.782;2023-08-21T10:57:37;33.80;57.10
45491;DHT22;31237;45.586;13.782;2023-08-21T11:02:30;34.00;57.30
45491;DHT22;31237;45.586;13.782;2023-08-21T11:04:57;34.00;56.70
45491;DHT22;31237;45.586;13.782;2023-08-21T11:07:24;34.10;56.50
45491;DHT22;31237;45.586;13.782;2023-08-21T11:09:51;34.10;56.80
45491;DHT22;31237;45.586;13.782;2023-08-21T11:12:20;34.20;57.30
45491;DHT22;31237;45.586;13.782;2023-08-21T11:14:46;34.20;57.30
45491;DHT22;31237;45.586;13.782;2023-08-21T11:17:12;34.30;56.40
45491;DHT22;31237;45.586;13.782;2023-08-21T11:19:39;34.30;55.90
45491;DHT22;31237;45.586;13.782;2023-08-21T11:22:05;34.30;55.80
45491;DHT22;31237;45.586;13.782;2023-08-21T11:27:07;34.40;56.30
45491;DHT22;31237;45.586;13.782;2023-08-21T11:29:42;34.40;56.00
45491;DHT22;31237;45.586;13.782;2023-08-21T11:32:10;34.40;55.40
45491;DHT22;31237;45.586;13.782;2023-08-21T11:34:36;34.50;54.90
45491;DHT22;31237;45.586;13.782;2023-08-21T11:37:03;34.50;55.00
45491;DHT22;31237;45.586;13.782;2023-08-21T11:39:51;34.50;54.30
45491;DHT22;31237;45.586;13.782;2023-08-21T11:42:29;34.50;54.90
45491;DHT22;31237;45.586;13.782;2023-08-21T11:44:55;34.50;55.10
45491;DHT22;31237;45.586;13.782;2023-08-21T11:47:22;34.50;55.00
45491;DHT22;31237;45.586;13.782;2023-08-21T11:49:49;34.50;54.60
45491;DHT22;31237;45.586;13.782;2023-08-21T11:52:19;34.50;54.00
45491;DHT22;31237;45.586;13.782;2023-08-21T11:54:48;34.50;54.20
45491;DHT22;31237;45.586;13.782;2023-08-21T11:57:14;34.50;54.10
45491;DHT22;31237;45.586;13.782;2023-08-21T11:59:41;34.50;54.10
45491;DHT22;31237;45.586;13.782;2023-08-21T12:02:23;34.50;54.20
45491;DHT22;31237;45.586;13.782;2023-08-21T12:07:19;34.40;53.70
45491;DHT22;31237;45.586;13.782;2023-08-21T12:09:49;34.40;53.90
45491;DHT22;31237;45.586;13.782;2023-08-21T12:12:15;34.40;54.00
45491;DHT22;31237;45.586;13.782;2023-08-21T12:14:41;34.40;53.60
45491;DHT22;31237;45.586;13.782;2023-08-21T12:17:07;34.40;53.50
45491;DHT22;31237;45.586;13.782;2023-08-21T12:19:33;34.40;52.70
45491;DHT22;31237;45.586;13.782;2023-08-21T12:21:59;34.40;53.10
45491;DHT22;31237;45.586;13.782;2023-08-21T12:24:24;34.30;53.50
45491;DHT22;31237;45.586;13.782;2023-08-21T12:26:50;34.30;53.60
45491;DHT22;31237;45.586;13.782;2023-08-21T12:29:16;34.30;53.50
45491;DHT22;31237;45.586;13.782;2023-08-21T12:31:42;34.30;53.10
45491;DHT22;31237;45.586;13.782;2023-08-21T12:34:07;34.20;53.10
45491;DHT22;31237;45.586;13.782;2023-08-21T12:36:36;34.20;53.30
45491;DHT22;31237;45.586;13.782;2023-08-21T12:39:03;34.20;53.40
45491;DHT22;31237;45.586;13.782;2023-08-21T12:41:29;34.20;53.80
45491;DHT22;31237;45.586;13.782;2023-08-21T12:43:55;34.20;53.80
45491;DHT22;31237;45.586;13.782;2023-08-21T12:46:21;34.20;54.00
45491;DHT22;31237;45.586;13.782;2023-08-21T12:48:47;34.10;53.90
45491;DHT22;31237;45.586;13.782;2023-08-21T12:51:13;34.10;54.30
45491;DHT22;31237;45.586;13.782;2023-08-21T12:53:39;34.10;54.60
45491;DHT22;31237;45.586;13.782;2023-08-21T12:56:04;34.00;54.50
45491;DHT22;31237;45.586;13.782;2023-08-21T12:58:30;34.00;54.70
45491;DHT22;31237;45.586;13.782;2023-08-21T13:00:57;34.00;54.80
45491;DHT22;31237;45.586;13.782;2023-08-21T13:03:22;33.90;54.90
45491;DHT22;31237;45.586;13.782;2023-08-21T13:05:48;33.90;54.60
45491;DHT22;31237;45.586;13.782;2023-08-21T13:08:14;33.90;54.50
45491;DHT22;31237;45.586;13.782;2023-08-21T13:10:39;33.90;54.20
45491;DHT22;31237;45.586;13.782;2023-08-21T13:13:05;33.80;54.40
45491;DHT22;31237;45.586;13.782;2023-08-21T13:15:31;33.80;54.50
45491;DHT22;31237;45.586;13.782;2023-08-21T13:17:57;33.80;54.50
45491;DHT22;31237;45.586;13.782;2023-08-21T13:20:23;33.70;54.70
45491;DHT22;31237;45.586;13.782;2023-08-21T13:22:50;33.70;54.90
45491;DHT22;31237;45.586;13.782;2023-08-21T13:25:22;33.70;54.70
45491;DHT22;31237;45.586;13.782;2023-08-21T13:27:49;33.60;54.80
45491;DHT22;31237;45.586;13.782;2023-08-21T13:30:15;33.60;55.00
45491;DHT22;31237;45.586;13.782;2023-08-21T13:32:42;33.50;55.40
45491;DHT22;31237;45.586;13.782;2023-08-21T13:35:08;33.60;55.80
45491;DHT22;31237;45.586;13.782;2023-08-21T13:37:35;33.60;56.00
45491;DHT22;31237;45.586;13.782;2023-08-21T13:40:01;33.50;56.30
45491;DHT22;31237;45.586;13.782;2023-08-21T13:42:35;33.50;56.10
45491;DHT22;31237;45.586;13.782;2023-08-21T13:45:03;33.40;55.90
45491;DHT22;31237;45.586;13.782;2023-08-21T13:47:29;33.40;56.00
45491;DHT22;31237;45.586;13.782;2023-08-21T13:49:55;33.30;55.80
45491;DHT22;31237;45.586;13.782;2023-08-21T13:52:20;33.30;55.20
45491;DHT22;31237;45.586;13.782;2023-08-21T13:54:47;33.30;54.30
45491;DHT22;31237;45.586;13.782;2023-08-21T13:57:12;33.20;54.20
45491;DHT22;31237;45.586;13.782;2023-08-21T13:59:38;33.20;54.40
45491;DHT22;31237;45.586;13.782;2023-08-21T14:02:04;33.20;53.50
45491;DHT22;31237;45.586;13.782;2023-08-21T14:04:32;33.10;53.80
45491;DHT22;31237;45.586;13.782;2023-08-21T14:06:57;33.10;54.30
45491;DHT22;31237;45.586;13.782;2023-08-21T14:09:23;33.10;54.80
45491;DHT22;31237;45.586;13.782;2023-08-21T14:11:49;33.00;54.90
45491;DHT22;31237;45.586;13.782;2023-08-21T14:14:14;33.00;55.00
45491;DHT22;31237;45.586;13.782;2023-08-21T14:16:40;33.00;55.40
45491;DHT22;31237;45.586;13.782;2023-08-21T14:19:06;32.90;55.60
45491;DHT22;31237;45.586;13.782;2023-08-21T14:21:31;32.90;55.60
45491;DHT22;31237;45.586;13.782;2023-08-21T14:23:57;32.90;55.40
45491;DHT22;31237;45.586;13.782;2023-08-21T14:26:23;32.90;55.50
45491;DHT22;31237;45.586;13.782;2023-08-21T14:28:49;32.80;55.60
45491;DHT22;31237;45.586;13.782;2023-08-21T14:31:17;32.80;55.70
45491;DHT22;31237;45.586;13.782;2023-08-21T14:33:43;32.80;55.80
45491;DHT22;31237;45.586;13.782;2023-08-21T14:36:08;32.80;56.10
45491;DHT22;31237;45.586;13.782;2023-08-21T14:38:34;32.70;55.80
45491;DHT22;31237;45.586;13.782;2023-08-21T14:41:00;32.70;55.40
45491;DHT22;31237;45.586;13.782;2023-08-21T14:43:25;32.60;55.50
45491;DHT22;31237;45.586;13.782;2023-08-21T14:45:51;32.60;55.50
45491;DHT22;31237;45.586;13.782;2023-08-21T14:48:17;32.60;55.70
45491;DHT22;31237;45.586;13.782;2023-08-21T14:50:43;32.50;55.90
45491;DHT22;31237;45.586;13.782;2023-08-21T14:53:09;32.50;55.70
45491;DHT22;31237;45.586;13.782;2023-08-21T14:55:34;32.50;55.90
45491;DHT22;31237;45.586;13.782;2023-08-21T14:58:00;32.40;55.90
45491;DHT22;31237;45.586;13.782;2023-08-21T15:00:31;32.40;56.10
45491;DHT22;31237;45.586;13.782;2023-08-21T15:02:57;32.40;56.40
45491;DHT22;31237;45.586;13.782;2023-08-21T15:05:22;32.30;56.50
45491;DHT22;31237;45.586;13.782;2023-08-21T15:07:48;32.30;56.60
45491;DHT22;31237;45.586;13.782;2023-08-21T15:10:14;32.30;56.70
45491;DHT22;31237;45.586;13.782;2023-08-21T15:12:40;32.30;57.00
45491;DHT22;31237;45.586;13.782;2023-08-21T15:15:06;32.20;57.10
45491;DHT22;31237;45.586;13.782;2023-08-21T15:17:32;32.20;57.00
45491;DHT22;31237;45.586;13.782;2023-08-21T15:19:57;32.20;56.80
45491;DHT22;31237;45.586;13.782;2023-08-21T15:22:23;32.20;56.60
45491;DHT22;31237;45.586;13.782;2023-08-21T15:24:49;32.10;56.30
45491;DHT22;31237;45.586;13.782;2023-08-21T15:27:15;32.10;56.10
45491;DHT22;31237;45.586;13.782;2023-08-21T15:29:42;32.10;56.20
45491;DHT22;31237;45.586;13.782;2023-08-21T15:32:08;32.00;56.20
45491;DHT22;31237;45.586;13.782;2023-08-21T15:34:34;31.90;56.30
45491;DHT22;31237;45.586;13.782;2023-08-21T15:36:59;31.90;56.50